sensor_id;sensor_type;location;lat;lon;timestamp;pressure;altitude;pressure_sealevel;temperature;humidity
52032;BME280;38044;45.148;39.604;2023-02-21T00:02:27;100681.34;;;-1.62;75.80
52032;BME280;38044;45.148;39.604;2023-02-21T00:05:11;100795.88;;;-0.73;75.71
52032;BME280;38044;45.148;39.604;2023-02-21T00:07:55;100844.03;;;-0.32;75.52
52032;BME280;38044;45.148;39.604;2023-02-21T00:10:39;100848.84;;;-0.22;75.11
52032;BME280;38044;45.148;39.604;2023-02-21T00:13:23;100810.91;;;-0.35;74.70
52032;BME280;38044;45.148;39.604;2023-02-21T00:16:07;100818.75;;;-0.21;74.68
52032;BME280;38044;45.148;39.604;2023-02-21T00:18:51;100830.00;;;-0.01;74.33
52032;BME280;38044;45.148;39.604;2023-02-21T00:21:36;100678.59;;;-0.90;73.84
52032;BME280;38044;45.148;39.604;2023-02-21T00:24:20;100835.22;;;0.12;73.23
52032;BME280;38044;45.148;39.604;2023-02-21T00:27:04;100733.13;;;-0.39;72.65
52032;BME280;38044;45.148;39.604;2023-02-21T00:29:49;100701.50;;;-0.52;72.31
52032;BME280;38044;45.148;39.604;2023-02-21T00:32:34;100656.72;;;-0.65;71.99
52032;BME280;38044;45.148;39.604;2023-02-21T00:35:18;100654.91;;;-0.65;71.89
52032;BME280;38044;45.148;39.604;2023-02-21T00:38:03;100778.38;;;0.21;71.56
52032;BME280;38044;45.148;39.604;2023-02-21T00:40:47;100812.97;;;0.45;71.46
52032;BME280;38044;45.148;39.604;2023-02-21T00:43:34;100682.09;;;-0.14;70.81
52032;BME280;38044;45.148;39.604;2023-02-21T00:46:19;100806.47;;;0.66;70.05
52032;BME280;38044;45.148;39.604;2023-02-21T00:49:04;100458.22;;;-1.49;69.54
52032;BME280;38044;45.148;39.604;2023-02-21T00:51:49;100803.91;;;0.78;69.71
52032;BME280;38044;45.148;39.604;2023-02-21T00:54:34;100800.22;;;0.79;69.40
52032;BME280;38044;45.148;39.604;2023-02-21T00:57:19;100757.44;;;0.63;69.72
52032;BME280;38044;45.148;39.604;2023-02-21T01:00:05;100740.22;;;0.54;69.69
52032;BME280;38044;45.148;39.604;2023-02-21T01:02:51;100754.56;;;0.65;69.86
52032;BME280;38044;45.148;39.604;2023-02-21T01:05:35;100733.78;;;0.50;69.78
52032;BME280;38044;45.148;39.604;2023-02-21T01:08:19;100721.63;;;0.42;70.08
52032;BME280;38044;45.148;39.604;2023-02-21T01:11:04;100756.31;;;0.71;70.11
52032;BME280;38044;45.148;39.604;2023-02-21T01:13:48;100552.03;;;-0.53;70.00
52032;BME280;38044;45.148;39.604;2023-02-21T01:16:32;100718.78;;;0.62;69.68
52032;BME280;38044;45.148;39.604;2023-02-21T01:19:17;100729.41;;;0.74;69.85
52032;BME280;38044;45.148;39.604;2023-02-21T01:22:03;100742.59;;;0.81;70.08
52032;BME280;38044;45.148;39.604;2023-02-21T01:24:50;100723.91;;;0.76;70.65
52032;BME280;38044;45.148;39.604;2023-02-21T01:27:36;100713.88;;;0.66;70.91
52032;BME280;38044;45.148;39.604;2023-02-21T01:30:20;100726.78;;;0.74;71.13
52032;BME280;38044;45.148;39.604;2023-02-21T01:33:04;100722.31;;;0.75;71.27
52032;BME280;38044;45.148;39.604;2023-02-21T01:35:49;100724.88;;;0.81;71.08
52032;BME280;38044;45.148;39.604;2023-02-21T01:38:34;100699.06;;;0.77;71.23
52032;BME280;38044;45.148;39.604;2023-02-21T01:41:19;100676.81;;;0.66;71.29
52032;BME280;38044;45.148;39.604;2023-02-21T01:44:06;100705.75;;;0.98;71.04
52032;BME280;38044;45.148;39.604;2023-02-21T01:47:12;100698.28;;;1.06;70.67
52032;BME280;38044;45.148;39.604;2023-02-21T01:49:59;100710.84;;;1.11;70.66
52032;BME280;38044;45.148;39.604;2023-02-21T01:52:45;100695.91;;;1.17;70.20
52032;BME280;38044;45.148;39.604;2023-02-21T01:55:30;100682.41;;;1.06;70.20
52032;BME280;38044;45.148;39.604;2023-02-21T01:58:16;100692.81;;;1.20;70.29
52032;BME280;38044;45.148;39.604;2023-02-21T02:01:01;100691.34;;;1.24;70.07
52032;BME280;38044;45.148;39.604;2023-02-21T02:03:45;100531.59;;;0.28;69.71
52032;BME280;38044;45.148;39.604;2023-02-21T02:06:30;100640.94;;;1.00;69.52
52032;BME280;38044;45.148;39.604;2023-02-21T02:09:19;100483.31;;;0.20;69.05
52032;BME280;38044;45.148;39.604;2023-02-21T02:12:23;100678.94;;;1.48;68.88
52032;BME280;38044;45.148;39.604;2023-02-21T02:40:02;100627.72;;;1.89;66.59
52032;BME280;38044;45.148;39.604;2023-02-21T02:42:50;100582.63;;;1.66;66.17
52032;BME280;38044;45.148;39.604;2023-02-21T02:45:34;100659.03;;;2.16;65.93
52032;BME280;38044;45.148;39.604;2023-02-21T02:48:13;100610.41;;;1.98;65.81
52032;BME280;38044;45.148;39.604;2023-02-21T02:50:40;100598.78;;;1.88;65.51
52032;BME280;38044;45.148;39.604;2023-02-21T02:53:09;100647.84;;;2.25;65.88
52032;BME280;38044;45.148;39.604;2023-02-21T02:55:48;100610.25;;;2.17;66.60
52032;BME280;38044;45.148;39.604;2023-02-21T02:58:16;100593.06;;;2.19;67.25
52032;BME280;38044;45.148;39.604;2023-02-21T03:00:54;100586.47;;;2.34;66.89
52032;BME280;38044;45.148;39.604;2023-02-21T03:03:44;100424.25;;;1.56;66.83
52032;BME280;38044;45.148;39.604;2023-02-21T03:06:21;100379.72;;;1.41;65.84
52032;BME280;38044;45.148;39.604;2023-02-21T03:09:13;100560.03;;;2.67;65.56
52032;BME280;38044;45.148;39.604;2023-02-21T03:12:33;100552.50;;;2.76;64.62
52032;BME280;38044;45.148;39.604;2023-02-21T03:14:55;100485.28;;;2.42;64.28
52032;BME280;38044;45.148;39.604;2023-02-21T03:17:25;100541.44;;;2.67;64.60
52032;BME280;38044;45.148;39.604;2023-02-21T03:19:53;100482.63;;;2.42;64.38
52032;BME280;38044;45.148;39.604;2023-02-21T03:22:24;100514.41;;;2.54;64.24
52032;BME280;38044;45.148;39.604;2023-02-21T03:24:53;100536.13;;;2.67;64.23
52032;BME280;38044;45.148;39.604;2023-02-21T03:27:20;100487.13;;;2.41;64.43
52032;BME280;38044;45.148;39.604;2023-02-21T03:29:48;100509.97;;;2.59;64.84
52032;BME280;38044;45.148;39.604;2023-02-21T03:34:58;100319.81;;;1.40;64.79
52032;BME280;38044;45.148;39.604;2023-02-21T03:37:34;100367.72;;;1.79;65.09
52032;BME280;38044;45.148;39.604;2023-02-21T03:40:02;100314.25;;;1.53;65.26
52032;BME280;38044;45.148;39.604;2023-02-21T03:42:28;100459.47;;;2.54;65.13
52032;BME280;38044;45.148;39.604;2023-02-21T03:44:56;100447.06;;;2.43;65.07
52032;BME280;38044;45.148;39.604;2023-02-21T03:47:32;100448.72;;;2.61;65.12
52032;BME280;38044;45.148;39.604;2023-02-21T03:50:11;100429.09;;;2.62;64.98
52032;BME280;38044;45.148;39.604;2023-02-21T03:52:38;100406.16;;;2.39;65.06
52032;BME280;38044;45.148;39.604;2023-02-21T03:55:05;100436.47;;;2.60;65.30
52032;BME280;38044;45.148;39.604;2023-02-21T03:57:33;100425.06;;;2.59;65.20
52032;BME280;38044;45.148;39.604;2023-02-21T03:59:59;100398.69;;;2.53;64.99
52032;BME280;38044;45.148;39.604;2023-02-21T04:02:31;100392.09;;;2.72;64.68
52032;BME280;38044;45.148;39.604;2023-02-21T04:05:03;100414.63;;;2.86;65.29
52032;BME280;38044;45.148;39.604;2023-02-21T04:07:32;100427.31;;;3.01;65.74
52032;BME280;38044;45.148;39.604;2023-02-21T04:10:10;100418.59;;;3.06;66.24
52032;BME280;38044;45.148;39.604;2023-02-21T04:12:47;100387.63;;;2.94;66.24
52032;BME280;38044;45.148;39.604;2023-02-21T04:15:18;100369.41;;;2.81;65.95
52032;BME280;38044;45.148;39.604;2023-02-21T04:17:44;100320.50;;;2.60;65.83
52032;BME280;38044;45.148;39.604;2023-02-21T04:20:10;100366.63;;;2.93;66.73
52032;BME280;38044;45.148;39.604;2023-02-21T04:22:36;100251.59;;;2.27;67.03
52032;BME280;38044;45.148;39.604;2023-02-21T04:25:02;100380.78;;;2.99;67.32
52032;BME280;38044;45.148;39.604;2023-02-21T04:27:28;100178.97;;;1.77;67.19
52032;BME280;38044;45.148;39.604;2023-02-21T04:29:54;100322.25;;;2.71;67.04
52032;BME280;38044;45.148;39.604;2023-02-21T04:32:20;100317.69;;;2.67;67.13
52032;BME280;38044;45.148;39.604;2023-02-21T04:34:45;100357.94;;;2.98;67.32
52032;BME280;38044;45.148;39.604;2023-02-21T04:37:11;100182.91;;;1.91;67.82
52032;BME280;38044;45.148;39.604;2023-02-21T04:39:37;100328.28;;;2.84;69.62
52032;BME280;38044;45.148;39.604;2023-02-21T04:42:03;100190.72;;;1.98;70.79
52032;BME280;38044;45.148;39.604;2023-02-21T04:44:29;100301.59;;;2.74;72.29
52032;BME280;38044;45.148;39.604;2023-02-21T04:46:55;100335.38;;;2.78;73.74
52032;BME280;38044;45.148;39.604;2023-02-21T04:49:21;100296.56;;;2.55;75.10
52032;BME280;38044;45.148;39.604;2023-02-21T04:51:50;100291.41;;;2.48;76.31
52032;BME280;38044;45.148;39.604;2023-02-21T04:54:16;100265.25;;;2.18;76.89
52032;BME280;38044;45.148;39.604;2023-02-21T04:56:42;100322.78;;;2.52;77.29
52032;BME280;38044;45.148;39.604;2023-02-21T04:59:08;100275.28;;;2.33;77.45
52032;BME280;38044;45.148;39.604;2023-02-21T05:01:33;100299.16;;;2.50;77.68
52032;BME280;38044;45.148;39.604;2023-02-21T05:03:59;100216.41;;;1.97;77.52
52032;BME280;38044;45.148;39.604;2023-02-21T05:06:26;100259.59;;;2.32;77.93
52032;BME280;38044;45.148;39.604;2023-02-21T05:08:53;100308.16;;;2.49;78.57
52032;BME280;38044;45.148;39.604;2023-02-21T05:11:19;100284.50;;;2.47;79.05
52032;BME280;38044;45.148;39.604;2023-02-21T05:13:46;100253.50;;;2.31;79.36
52032;BME280;38044;45.148;39.604;2023-02-21T05:16:12;100276.13;;;2.56;79.07
52032;BME280;38044;45.148;39.604;2023-02-21T05:18:41;100267.13;;;2.57;79.54
52032;BME280;38044;45.148;39.604;2023-02-21T05:21:07;100267.50;;;2.65;79.42
52032;BME280;38044;45.148;39.604;2023-02-21T05:23:34;100256.50;;;2.57;79.63
52032;BME280;38044;45.148;39.604;2023-02-21T05:26:05;100232.25;;;2.48;79.79
52032;BME280;38044;45.148;39.604;2023-02-21T05:28:32;100257.94;;;2.64;79.83
52032;BME280;38044;45.148;39.604;2023-02-21T05:30:58;100200.09;;;2.44;80.12
52032;BME280;38044;45.148;39.604;2023-02-21T05:33:24;100072.28;;;1.65;79.94
52032;BME280;38044;45.148;39.604;2023-02-21T05:35:50;100223.50;;;2.69;80.07
52032;BME280;38044;45.148;39.604;2023-02-21T05:38:18;100212.56;;;2.66;80.04
52032;BME280;38044;45.148;39.604;2023-02-21T05:40:44;100204.59;;;2.66;80.08
52032;BME280;38044;45.148;39.604;2023-02-21T05:43:10;100083.13;;;2.02;79.71
52032;BME280;38044;45.148;39.604;2023-02-21T05:45:36;100200.22;;;2.99;80.04
52032;BME280;38044;45.148;39.604;2023-02-21T05:48:02;100215.16;;;3.05;80.01
52032;BME280;38044;45.148;39.604;2023-02-21T05:50:28;100196.94;;;2.91;80.01
52032;BME280;38044;45.148;39.604;2023-02-21T05:52:58;100182.91;;;3.18;79.32
52032;BME280;38044;45.148;39.604;2023-02-21T05:55:24;100072.91;;;2.60;79.15
52032;BME280;38044;45.148;39.604;2023-02-21T05:57:50;100191.41;;;3.47;78.90
52032;BME280;38044;45.148;39.604;2023-02-21T06:00:22;100190.66;;;3.57;78.79
52032;BME280;38044;45.148;39.604;2023-02-21T06:02:49;100172.13;;;3.62;78.22
52032;BME280;38044;45.148;39.604;2023-02-21T06:05:19;100199.59;;;3.73;77.74
52032;BME280;38044;45.148;39.604;2023-02-21T06:07:46;100156.13;;;3.57;77.55
52032;BME280;38044;45.148;39.604;2023-02-21T06:10:14;99980.72;;;2.77;77.56
52032;BME280;38044;45.148;39.604;2023-02-21T06:12:40;100032.81;;;3.15;77.17
52032;BME280;38044;45.148;39.604;2023-02-21T06:15:06;99976.88;;;2.95;76.98
52032;BME280;38044;45.148;39.604;2023-02-21T06:17:36;100118.66;;;3.96;76.70
52032;BME280;38044;45.148;39.604;2023-02-21T06:20:03;100095.09;;;3.72;76.83
52032;BME280;38044;45.148;39.604;2023-02-21T06:22:29;100147.41;;;4.09;76.60
52032;BME280;38044;45.148;39.604;2023-02-21T06:24:55;100091.56;;;4.09;75.80
52032;BME280;38044;45.148;39.604;2023-02-21T06:27:21;100127.81;;;4.25;75.25
52032;BME280;38044;45.148;39.604;2023-02-21T06:29:47;100146.00;;;4.39;74.50
52032;BME280;38044;45.148;39.604;2023-02-21T06:32:13;100118.03;;;4.36;74.10
52032;BME280;38044;45.148;39.604;2023-02-21T06:34:39;100094.59;;;4.28;72.62
52032;BME280;38044;45.148;39.604;2023-02-21T06:37:05;99941.31;;;3.44;72.32
52032;BME280;38044;45.148;39.604;2023-02-21T06:39:31;100085.31;;;4.46;72.03
52032;BME280;38044;45.148;39.604;2023-02-21T06:41:57;100120.00;;;4.61;71.65
52032;BME280;38044;45.148;39.604;2023-02-21T06:44:24;99962.66;;;3.59;72.02
52032;BME280;38044;45.148;39.604;2023-02-21T06:46:50;100139.66;;;4.60;71.89
52032;BME280;38044;45.148;39.604;2023-02-21T06:49:19;100120.53;;;4.58;71.62
52032;BME280;38044;45.148;39.604;2023-02-21T06:51:45;100012.25;;;3.96;71.75
52032;BME280;38044;45.148;39.604;2023-02-21T06:54:12;100107.47;;;4.62;71.28
52032;BME280;38044;45.148;39.604;2023-02-21T06:56:38;99945.66;;;3.65;71.42
52032;BME280;38044;45.148;39.604;2023-02-21T06:59:04;100074.38;;;4.37;71.91
52032;BME280;38044;45.148;39.604;2023-02-21T07:01:30;99910.22;;;3.39;70.53
52032;BME280;38044;45.148;39.604;2023-02-21T07:03:57;100088.00;;;4.51;70.99
52032;BME280;38044;45.148;39.604;2023-02-21T07:06:23;100105.06;;;4.55;71.17
52032;BME280;38044;45.148;39.604;2023-02-21T07:08:49;100101.34;;;4.56;71.45
52032;BME280;38044;45.148;39.604;2023-02-21T07:11:17;100087.50;;;4.59;71.90
52032;BME280;38044;45.148;39.604;2023-02-21T07:13:52;100087.53;;;4.64;71.95
52032;BME280;38044;45.148;39.604;2023-02-21T07:16:19;100067.75;;;4.45;72.27
52032;BME280;38044;45.148;39.604;2023-02-21T07:18:45;99911.56;;;3.52;72.06
52032;BME280;38044;45.148;39.604;2023-02-21T07:21:12;100018.72;;;4.20;72.12
52032;BME280;38044;45.148;39.604;2023-02-21T07:23:39;100090.09;;;4.39;72.47
52032;BME280;38044;45.148;39.604;2023-02-21T07:26:07;100092.53;;;4.50;73.16
52032;BME280;38044;45.148;39.604;2023-02-21T07:28:32;100020.63;;;4.30;72.90
52032;BME280;38044;45.148;39.604;2023-02-21T07:30:58;100091.97;;;4.38;72.97
52032;BME280;38044;45.148;39.604;2023-02-21T07:33:24;100106.84;;;4.34;73.01
52032;BME280;38044;45.148;39.604;2023-02-21T07:35:50;100091.16;;;4.33;73.26
52032;BME280;38044;45.148;39.604;2023-02-21T07:38:27;100112.22;;;4.44;73.14
52032;BME280;38044;45.148;39.604;2023-02-21T07:40:54;100082.41;;;4.47;73.06
52032;BME280;38044;45.148;39.604;2023-02-21T07:43:20;100065.88;;;4.35;72.79
52032;BME280;38044;45.148;39.604;2023-02-21T07:45:46;100082.38;;;4.42;73.43
52032;BME280;38044;45.148;39.604;2023-02-21T07:48:12;100035.81;;;4.45;72.79
52032;BME280;38044;45.148;39.604;2023-02-21T07:50:40;100017.16;;;4.24;72.86
52032;BME280;38044;45.148;39.604;2023-02-21T07:53:06;99921.78;;;3.80;72.97
52032;BME280;38044;45.148;39.604;2023-02-21T07:55:32;100044.63;;;4.50;73.11
52032;BME280;38044;45.148;39.604;2023-02-21T07:57:59;100005.44;;;4.31;73.08
52032;BME280;38044;45.148;39.604;2023-02-21T08:00:25;99979.84;;;4.09;73.17
52032;BME280;38044;45.148;39.604;2023-02-21T08:02:51;99995.06;;;4.29;72.97
52032;BME280;38044;45.148;39.604;2023-02-21T08:05:18;100008.91;;;4.31;73.01
52032;BME280;38044;45.148;39.604;2023-02-21T08:07:44;100035.81;;;4.45;73.39
52032;BME280;38044;45.148;39.604;2023-02-21T08:10:12;99940.25;;;4.13;73.91
52032;BME280;38044;45.148;39.604;2023-02-21T08:12:38;99991.06;;;4.16;74.35
52032;BME280;38044;45.148;39.604;2023-02-21T08:15:04;100027.81;;;4.29;74.49
52032;BME280;38044;45.148;39.604;2023-02-21T08:17:31;100001.66;;;4.11;74.88
52032;BME280;38044;45.148;39.604;2023-02-21T08:19:57;99857.22;;;3.17;75.01
52032;BME280;38044;45.148;39.604;2023-02-21T08:22:23;99990.22;;;4.05;74.89
52032;BME280;38044;45.148;39.604;2023-02-21T08:24:49;99868.00;;;3.48;74.92
52032;BME280;38044;45.148;39.604;2023-02-21T08:27:15;100017.41;;;4.18;75.40
52032;BME280;38044;45.148;39.604;2023-02-21T08:29:41;99908.13;;;3.51;75.19
52032;BME280;38044;45.148;39.604;2023-02-21T08:32:07;99979.03;;;4.09;75.22
52032;BME280;38044;45.148;39.604;2023-02-21T08:34:33;99875.41;;;3.35;75.13
52032;BME280;38044;45.148;39.604;2023-02-21T08:36:59;99963.31;;;3.92;75.09
52032;BME280;38044;45.148;39.604;2023-02-21T08:39:25;99961.75;;;4.01;74.77
52032;BME280;38044;45.148;39.604;2023-02-21T08:41:55;99963.09;;;4.09;75.32
52032;BME280;38044;45.148;39.604;2023-02-21T08:44:21;100001.72;;;4.32;74.97
52032;BME280;38044;45.148;39.604;2023-02-21T08:46:47;99994.84;;;4.41;74.62
52032;BME280;38044;45.148;39.604;2023-02-21T08:49:13;99900.00;;;3.83;74.52
52032;BME280;38044;45.148;39.604;2023-02-21T08:51:39;99957.53;;;4.25;74.24
52032;BME280;38044;45.148;39.604;2023-02-21T08:54:05;99889.41;;;4.09;74.00
52032;BME280;38044;45.148;39.604;2023-02-21T08:56:32;99938.91;;;4.25;73.57
52032;BME280;38044;45.148;39.604;2023-02-21T08:58:59;99938.66;;;4.37;73.88
52032;BME280;38044;45.148;39.604;2023-02-21T09:01:30;99918.47;;;4.41;74.04
52032;BME280;38044;45.148;39.604;2023-02-21T09:03:56;99947.47;;;4.53;73.10
52032;BME280;38044;45.148;39.604;2023-02-21T09:06:22;99832.47;;;3.69;73.88
52032;BME280;38044;45.148;39.604;2023-02-21T09:08:48;99782.97;;;3.48;74.23
52032;BME280;38044;45.148;39.604;2023-02-21T09:11:14;99953.56;;;4.33;74.47
52032;BME280;38044;45.148;39.604;2023-02-21T09:13:40;99881.94;;;3.91;75.83
52032;BME280;38044;45.148;39.604;2023-02-21T09:16:06;99967.69;;;4.39;75.81
52032;BME280;38044;45.148;39.604;2023-02-21T09:18:32;99859.56;;;3.76;76.29
52032;BME280;38044;45.148;39.604;2023-02-21T09:20:58;99913.06;;;4.05;76.54
52032;BME280;38044;45.148;39.604;2023-02-21T09:23:25;99812.16;;;3.43;76.53
52032;BME280;38044;45.148;39.604;2023-02-21T09:25:51;99901.31;;;3.86;77.01
52032;BME280;38044;45.148;39.604;2023-02-21T09:28:18;99929.84;;;4.01;77.63
52032;BME280;38044;45.148;39.604;2023-02-21T09:30:45;99933.31;;;4.06;77.79
52032;BME280;38044;45.148;39.604;2023-02-21T09:33:11;99855.81;;;3.62;77.98
52032;BME280;38044;45.148;39.604;2023-02-21T09:35:37;99937.81;;;4.06;78.49
52032;BME280;38044;45.148;39.604;2023-02-21T09:38:04;99884.59;;;3.86;78.78
52032;BME280;38044;45.148;39.604;2023-02-21T09:40:44;99895.72;;;3.72;79.16
52032;BME280;38044;45.148;39.604;2023-02-21T09:43:38;99801.47;;;3.22;79.85
52032;BME280;38044;45.148;39.604;2023-02-21T09:46:08;99776.50;;;3.13;79.69
52032;BME280;38044;45.148;39.604;2023-02-21T09:48:36;99904.78;;;3.81;80.15
52032;BME280;38044;45.148;39.604;2023-02-21T09:51:04;99927.38;;;3.89;80.40
52032;BME280;38044;45.148;39.604;2023-02-21T09:53:38;99835.03;;;3.44;80.88
52032;BME280;38044;45.148;39.604;2023-02-21T09:56:30;99912.75;;;3.81;81.06
52032;BME280;38044;45.148;39.604;2023-02-21T09:58:54;99911.16;;;3.75;81.58
52032;BME280;38044;45.148;39.604;2023-02-21T10:07:34;99904.22;;;3.64;82.31
52032;BME280;38044;45.148;39.604;2023-02-21T10:12:55;99659.75;;;2.02;83.10
52032;BME280;38044;45.148;39.604;2023-02-21T10:15:28;99857.31;;;3.32;83.72
52032;BME280;38044;45.148;39.604;2023-02-21T10:21:24;99761.22;;;2.83;83.71
52032;BME280;38044;45.148;39.604;2023-02-21T10:23:52;99729.56;;;2.66;83.79
52032;BME280;38044;45.148;39.604;2023-02-21T10:26:27;99876.31;;;3.72;84.34
52032;BME280;38044;45.148;39.604;2023-02-21T10:28:54;99835.56;;;3.41;84.62
52032;BME280;38044;45.148;39.604;2023-02-21T10:31:34;99892.53;;;3.75;84.93
52032;BME280;38044;45.148;39.604;2023-02-21T10:34:05;99850.47;;;3.52;84.79
52032;BME280;38044;45.148;39.604;2023-02-21T10:36:33;99593.19;;;1.99;84.53
52032;BME280;38044;45.148;39.604;2023-02-21T10:41:29;99863.31;;;3.75;84.76
52032;BME280;38044;45.148;39.604;2023-02-21T10:44:24;99853.72;;;3.69;85.05
52032;BME280;38044;45.148;39.604;2023-02-21T10:47:01;99716.41;;;2.86;85.00
52032;BME280;38044;45.148;39.604;2023-02-21T10:52:19;99691.97;;;2.94;84.97
52032;BME280;38044;45.148;39.604;2023-02-21T10:57:39;99809.63;;;3.83;83.99
52032;BME280;38044;45.148;39.604;2023-02-21T11:00:07;99845.78;;;4.00;84.76
52032;BME280;38044;45.148;39.604;2023-02-21T11:02:36;99650.53;;;2.73;84.63
52032;BME280;38044;45.148;39.604;2023-02-21T11:05:15;99715.41;;;3.23;84.60
52032;BME280;38044;45.148;39.604;2023-02-21T11:08:00;99680.63;;;3.20;84.15
52032;BME280;38044;45.148;39.604;2023-02-21T11:10:36;99827.16;;;4.00;84.46
52032;BME280;38044;45.148;39.604;2023-02-21T11:13:12;99772.91;;;3.75;84.21
52032;BME280;38044;45.148;39.604;2023-02-21T11:15:39;99771.88;;;3.87;84.04
52032;BME280;38044;45.148;39.604;2023-02-21T11:18:17;99800.06;;;3.93;83.86
52032;BME280;38044;45.148;39.604;2023-02-21T11:20:47;99805.88;;;4.00;84.15
52032;BME280;38044;45.148;39.604;2023-02-21T11:23:25;99819.47;;;4.09;83.86
52032;BME280;38044;45.148;39.604;2023-02-21T11:26:12;99834.09;;;4.21;83.72
52032;BME280;38044;45.148;39.604;2023-02-21T11:28:41;99715.47;;;3.38;83.26
52032;BME280;38044;45.148;39.604;2023-02-21T11:31:21;99806.41;;;3.97;83.66
52032;BME280;38044;45.148;39.604;2023-02-21T11:33:56;99846.06;;;4.19;84.07
52032;BME280;38044;45.148;39.604;2023-02-21T11:36:29;99791.28;;;3.87;83.57
52032;BME280;38044;45.148;39.604;2023-02-21T11:41:48;99865.47;;;4.14;83.84
52032;BME280;38044;45.148;39.604;2023-02-21T11:44:28;99857.50;;;4.14;84.18
52032;BME280;38044;45.148;39.604;2023-02-21T11:47:08;99867.09;;;4.15;84.49
52032;BME280;38044;45.148;39.604;2023-02-21T11:50:01;99871.06;;;4.07;84.58
52032;BME280;38044;45.148;39.604;2023-02-21T11:54:57;99863.88;;;3.98;85.55
52032;BME280;38044;45.148;39.604;2023-02-21T12:00:25;99831.69;;;4.04;85.83
52032;BME280;38044;45.148;39.604;2023-02-21T12:03:25;99731.91;;;3.30;85.53
52032;BME280;38044;45.148;39.604;2023-02-21T12:08:46;99831.41;;;4.06;86.22
52032;BME280;38044;45.148;39.604;2023-02-21T12:13:49;99756.94;;;3.55;86.03
52032;BME280;38044;45.148;39.604;2023-02-21T12:16:36;99714.63;;;3.28;86.11
52032;BME280;38044;45.148;39.604;2023-02-21T12:22:43;99833.28;;;4.00;86.06
52032;BME280;38044;45.148;39.604;2023-02-21T12:25:07;99865.50;;;4.24;86.08
52032;BME280;38044;45.148;39.604;2023-02-21T12:28:01;99844.19;;;4.14;85.96
52032;BME280;38044;45.148;39.604;2023-02-21T12:31:03;99848.47;;;4.25;85.81
52032;BME280;38044;45.148;39.604;2023-02-21T12:36:14;99846.59;;;4.26;84.63
52032;BME280;38044;45.148;39.604;2023-02-21T12:44:12;99836.25;;;4.29;84.51
52032;BME280;38044;45.148;39.604;2023-02-21T12:52:14;99808.81;;;4.09;83.90
52032;BME280;38044;45.148;39.604;2023-02-21T12:54:50;99848.44;;;4.20;83.75
52032;BME280;38044;45.148;39.604;2023-02-21T12:57:25;99672.63;;;3.14;83.25
52032;BME280;38044;45.148;39.604;2023-02-21T13:00:04;99831.16;;;4.07;83.37
52032;BME280;38044;45.148;39.604;2023-02-21T13:05:37;99685.63;;;3.06;84.12
52032;BME280;38044;45.148;39.604;2023-02-21T13:08:31;99872.66;;;4.09;84.43
52032;BME280;38044;45.148;39.604;2023-02-21T13:11:17;99880.38;;;4.10;84.97
52032;BME280;38044;45.148;39.604;2023-02-21T13:13:46;99812.25;;;3.78;84.56
52032;BME280;38044;45.148;39.604;2023-02-21T13:16:13;99834.59;;;3.88;84.73
52032;BME280;38044;45.148;39.604;2023-02-21T13:18:44;99860.41;;;3.97;85.15
52032;BME280;38044;45.148;39.604;2023-02-21T13:29:34;99712.22;;;3.16;85.35
52032;BME280;38044;45.148;39.604;2023-02-21T13:32:12;99816.25;;;3.81;85.61
52032;BME280;38044;45.148;39.604;2023-02-21T13:34:42;99835.41;;;4.09;85.45
52032;BME280;38044;45.148;39.604;2023-02-21T13:37:23;99826.34;;;3.94;85.11
52032;BME280;38044;45.148;39.604;2023-02-21T13:39:53;99687.28;;;3.27;84.95
52032;BME280;38044;45.148;39.604;2023-02-21T13:42:23;99808.56;;;3.90;85.33
52032;BME280;38044;45.148;39.604;2023-02-21T13:44:54;99667.84;;;3.11;85.61
52032;BME280;38044;45.148;39.604;2023-02-21T13:55:35;99616.59;;;2.96;85.25
52032;BME280;38044;45.148;39.604;2023-02-21T14:08:28;99751.38;;;4.13;83.41
52032;BME280;38044;45.148;39.604;2023-02-21T14:13:36;99771.31;;;4.15;83.23
52032;BME280;38044;45.148;39.604;2023-02-21T14:21:16;99756.94;;;4.16;82.87
52032;BME280;38044;45.148;39.604;2023-02-21T14:23:54;99743.41;;;4.07;82.57
52032;BME280;38044;45.148;39.604;2023-02-21T14:37:35;99720.78;;;3.95;83.22
52032;BME280;38044;45.148;39.604;2023-02-21T14:51:09;99617.66;;;3.00;84.32
52032;BME280;38044;45.148;39.604;2023-02-21T14:59:31;99804.84;;;4.01;84.99
52032;BME280;38044;45.148;39.604;2023-02-21T15:12:50;99708.31;;;3.65;84.62
52032;BME280;38044;45.148;39.604;2023-02-21T15:15:21;99765.50;;;3.98;84.03
52032;BME280;38044;45.148;39.604;2023-02-21T15:18:24;99784.06;;;4.23;84.41
52032;BME280;38044;45.148;39.604;2023-02-21T15:21:18;99803.78;;;4.27;84.14
52032;BME280;38044;45.148;39.604;2023-02-21T15:23:46;99640.81;;;3.30;83.60
52032;BME280;38044;45.148;39.604;2023-02-21T15:26:26;99768.09;;;4.34;83.79
52032;BME280;38044;45.148;39.604;2023-02-21T15:31:35;99789.13;;;4.30;83.39
52032;BME280;38044;45.148;39.604;2023-02-21T15:34:03;99766.53;;;4.27;83.24
52032;BME280;38044;45.148;39.604;2023-02-21T15:36:29;99802.41;;;4.45;83.19
52032;BME280;38044;45.148;39.604;2023-02-21T15:39:09;99757.47;;;4.23;82.61
52032;BME280;38044;45.148;39.604;2023-02-21T15:41:49;99789.34;;;4.64;82.72
52032;BME280;38044;45.148;39.604;2023-02-21T15:44:22;99770.75;;;4.39;82.92
52032;BME280;38044;45.148;39.604;2023-02-21T15:47:00;99795.72;;;4.68;82.27
52032;BME280;38044;45.148;39.604;2023-02-21T15:49:28;99831.94;;;4.69;82.32
52032;BME280;38044;45.148;39.604;2023-02-21T15:51:55;99795.47;;;4.55;82.22
52032;BME280;38044;45.148;39.604;2023-02-21T15:54:30;99700.31;;;4.05;82.42
52032;BME280;38044;45.148;39.604;2023-02-21T15:57:11;99825.53;;;4.60;82.30
52032;BME280;38044;45.148;39.604;2023-02-21T15:59:41;99793.09;;;4.38;82.49
52032;BME280;38044;45.148;39.604;2023-02-21T16:04:41;99828.22;;;4.45;82.51
52032;BME280;38044;45.148;39.604;2023-02-21T16:10:08;99796.84;;;4.37;82.08